Time;durP1;ratioP1;P1;durP2;ratioP2;P2;SDS_P1;SDS_P2;PMS_P1;PMS_P2;Temp;Humidity;BMP_temperature;BMP_pressure;BME280_temperature;BME280_humidity;BME280_pressure;Samples;Min_cycle;Max_cycle;Signal;HPM_P1;HPM_P2
2023/12/07 00:00:07;;;;;;;25.77;15.57;;;;;;;-142.91;0.00;63595.00;5050551;28;20283;-74
2023/12/07 00:02:34;;;;;;;25.15;15.40;;;;;;;;;;5062671;28;20265;-74
2023/12/07 00:05:00;;;;;;;24.23;13.77;;;;;;;;;;5052287;28;20759;-73
2023/12/07 00:07:26;;;;;;;24.88;14.43;;;;;;;;;;5054878;28;20223;-72
2023/12/07 00:09:53;;;;;;;23.83;14.77;;;;;;;;;;5048678;28;20748;-73
2023/12/07 00:12:20;;;;;;;20.48;13.77;;;;;;;;;;5054382;28;20802;-73
2023/12/07 00:14:46;;;;;;;25.10;14.38;;;;;;;;;;5055232;28;20305;-74
2023/12/07 00:17:14;;;;;;;26.13;15.02;;;;;;;-142.91;0.00;100169.13;5060107;28;20888;-73
2023/12/07 00:19:41;;;;;;;20.85;14.02;;;;;;;;;;5061744;28;20599;-74
2023/12/07 00:22:07;;;;;;;18.95;12.82;;;;;;;;;;5050677;28;20227;-73
2023/12/07 00:24:33;;;;;;;18.77;12.27;;;;;;;;;;5057849;28;20351;-73
2023/12/07 00:27:00;;;;;;;17.88;12.68;;;;;;;;;;5054431;28;20238;-73
2023/12/07 00:29:26;;;;;;;19.90;13.35;;;;;;;;;;5063276;28;20290;-73
2023/12/07 00:31:53;;;;;;;21.75;13.35;;;;;;;;;;5054989;28;20299;-72
2023/12/07 00:34:21;;;;;;;20.23;13.52;;;;;;;-142.91;0.00;100169.13;5056047;28;20293;-73
2023/12/07 00:36:47;;;;;;;19.75;13.73;;;;;;;;;;5055358;28;20295;-73
2023/12/07 00:39:14;;;;;;;18.65;12.63;;;;;;;;;;5057240;28;20298;-73
2023/12/07 00:41:40;;;;;;;21.02;13.27;;;;;;;;;;5060925;28;20237;-73
2023/12/07 00:44:06;;;;;;;22.40;13.13;;;;;;;;;;5054866;28;20238;-72
2023/12/07 00:46:33;;;;;;;21.42;13.75;;;;;;;;;;5062767;28;20241;-73
2023/12/07 00:49:01;;;;;;;17.98;12.90;;;;;;;;;;5064906;28;20289;-73
2023/12/07 00:51:28;;;;;;;18.65;12.57;;;;;;;;;;5059310;28;20313;-74
2023/12/07 00:53:55;;;;;;;20.67;13.48;;;;;;;;;;5059198;28;20289;-73
2023/12/07 00:56:23;;;;;;;21.75;12.77;;;;;;;-142.91;0.00;100169.13;5059339;28;20301;-73
2023/12/07 00:58:49;;;;;;;20.50;13.48;;;;;;;;;;5034384;28;20229;-73
2023/12/07 01:01:15;;;;;;;22.70;13.88;;;;;;;;;;5063265;28;20286;-74
2023/12/07 01:03:42;;;;;;;19.50;13.02;;;;;;;;;;5066003;28;20242;-73
2023/12/07 01:06:11;;;;;;;20.20;14.40;;;;;;;;;;5051777;28;20736;-71
2023/12/07 01:08:39;;;;;;;22.10;14.48;;;;;;;;;;5053081;28;20194;-73
2023/12/07 01:11:05;;;;;;;18.95;14.00;;;;;;;;;;5052610;28;20293;-72
2023/12/07 01:13:32;;;;;;;21.15;14.82;;;;;;;;;;5053787;28;20286;-72
2023/12/07 01:15:58;;;;;;;22.00;13.82;;;;;;;;;;5056614;28;20301;-73
2023/12/07 01:18:25;;;;;;;19.02;13.32;;;;;;;-142.91;0.00;100169.13;5056008;28;20201;-72
2023/12/07 01:20:51;;;;;;;19.33;13.48;;;;;;;-142.91;0.00;100169.13;5060981;28;20237;-72
2023/12/07 01:23:18;;;;;;;20.00;14.43;;;;;;;-142.91;0.00;100169.13;5054027;28;20278;-73
2023/12/07 01:25:46;;;;;;;22.55;13.80;;;;;;;-142.91;0.00;100169.13;5055258;28;20314;-74
2023/12/07 01:28:12;;;;;;;24.98;15.38;;;;;;;;;;5056625;28;20248;-73
2023/12/07 01:30:39;;;;;;;19.42;13.43;;;;;;;;;;5048529;28;20322;-74
2023/12/07 01:33:06;;;;;;;23.08;14.43;;;;;;;;;;5055857;28;20313;-73
2023/12/07 01:35:32;;;;;;;23.02;13.52;;;;;;;;;;5051529;28;20241;-75
2023/12/07 01:37:59;;;;;;;19.63;13.50;;;;;;;-142.91;0.00;100169.13;5057210;28;20592;-72
2023/12/07 01:40:25;;;;;;;18.52;13.68;;;;;;;;;;5058918;28;20265;-72
2023/12/07 01:42:53;;;;;;;22.02;13.63;;;;;;;;;;5056383;28;20285;-73
2023/12/07 01:45:20;;;;;;;19.67;13.80;;;;;;;-142.91;0.00;100169.13;5056489;28;20297;-75
2023/12/07 01:47:47;;;;;;;25.27;14.00;;;;;;;;;;5051009;28;20637;-73
2023/12/07 01:50:15;;;;;;;24.52;14.55;;;;;;;;;;5053563;28;20298;-74
2023/12/07 01:52:44;;;;;;;19.33;12.20;;;;;;;;;;5059943;28;20218;-74
2023/12/07 01:55:13;;;;;;;20.80;13.55;;;;;;;-142.91;0.00;100169.13;5057695;28;20748;-73
2023/12/07 01:57:39;;;;;;;22.52;14.10;;;;;;;;;;5031382;28;20203;-73
2023/12/07 02:00:09;;;;;;;21.00;14.13;;;;;;;;;;5056431;28;20286;-72
2023/12/07 02:02:35;;;;;;;19.77;13.13;;;;;;;;;;5061932;28;20202;-73
2023/12/07 02:05:03;;;;;;;20.67;12.50;;;;;;;;;;5063815;28;20667;-72
2023/12/07 02:07:30;;;;;;;20.92;14.18;;;;;;;;;;5060952;28;20210;-73
2023/12/07 02:09:57;;;;;;;20.88;14.23;;;;;;;;;;5054335;28;20231;-74
2023/12/07 02:12:25;;;;;;;23.35;12.73;;;;;;;-142.91;0.00;100169.13;5050614;28;20630;-73
2023/12/07 02:14:52;;;;;;;16.45;11.30;;;;;;;-142.91;0.00;100169.13;5055979;28;20295;-73
2023/12/07 02:17:24;;;;;;;17.50;12.40;;;;;;;;;;5051492;28;20206;-73
2023/12/07 02:19:54;;;;;;;17.38;12.63;;;;;;;;;;5054624;28;20296;-73
2023/12/07 02:22:25;;;;;;;18.52;12.27;;;;;;;;;;5050540;28;20298;-72
2023/12/07 02:25:07;;;;;;;23.77;14.02;;;;;;;-142.91;0.00;100169.13;5056585;28;20799;-72
2023/12/07 02:27:35;;;;;;;23.60;13.85;;;;;;;;;;5058231;28;20603;-71
2023/12/07 02:30:01;;;;;;;27.67;14.32;;;;;;;;;;5053420;28;20297;-71
2023/12/07 02:32:28;;;;;;;23.90;15.18;;;;;;;;;;5057524;28;20250;-72
2023/12/07 02:34:55;;;;;;;24.25;15.02;;;;;;;-142.91;0.00;100169.13;5056999;28;20721;-71
2023/12/07 02:37:22;;;;;;;28.58;16.95;;;;;;;;;;5060174;28;21751;-71
2023/12/07 02:39:48;;;;;;;24.88;16.08;;;;;;;;;;5055189;28;20199;-71
2023/12/07 02:42:16;;;;;;;25.63;17.23;;;;;;;-142.91;0.00;100169.13;5056154;28;20226;-72
2023/12/07 02:44:44;;;;;;;26.55;16.60;;;;;;;;;;5059525;28;20285;-71
2023/12/07 02:47:11;;;;;;;28.67;17.60;;;;;;;-142.91;0.00;100169.13;5047782;28;20298;-71
2023/12/07 02:49:37;;;;;;;28.65;16.27;;;;;;;;;;5059244;28;20295;-71
2023/12/07 02:52:05;;;;;;;25.00;14.75;;;;;;;-142.91;0.00;100169.13;5057931;28;20787;-71
2023/12/07 02:54:31;;;;;;;24.27;16.05;;;;;;;;;;5056238;28;20365;-71
2023/12/07 02:56:58;;;;;;;23.38;14.23;;;;;;;-142.91;0.00;100169.13;5057334;28;20285;-71
2023/12/07 02:59:24;;;;;;;26.55;15.35;;;;;;;;;;5059639;28;20292;-71
2023/12/07 03:01:52;;;;;;;20.92;13.82;;;;;;;;;;5060675;28;20304;-71
2023/12/07 03:04:18;;;;;;;26.77;14.10;;;;;;;;;;5044859;28;20318;-71
2023/12/07 03:06:45;;;;;;;21.67;14.40;;;;;;;;;;5053159;28;20753;-71
2023/12/07 03:09:11;;;;;;;22.35;13.27;;;;;;;;;;5060261;28;20302;-71
2023/12/07 03:11:37;;;;;;;21.10;13.20;;;;;;;;;;5052602;28;20293;-71
2023/12/07 03:14:04;;;;;;;18.48;11.98;;;;;;;;;;5056977;28;20211;-72
2023/12/07 03:16:30;;;;;;;17.85;11.23;;;;;;;;;;5048565;28;20326;-72
2023/12/07 03:18:58;;;;;;;16.92;10.40;;;;;;;-142.91;0.00;100169.13;5048213;28;20652;-72
2023/12/07 03:21:25;;;;;;;15.40;11.23;;;;;;;;;;5052958;28;20290;-72
2023/12/07 03:23:51;;;;;;;17.52;11.23;;;;;;;;;;5057808;28;20305;-72
2023/12/07 03:26:17;;;;;;;12.82;9.68;;;;;;;;;;5059298;28;20301;-72
2023/12/07 03:28:44;;;;;;;16.23;11.18;;;;;;;;;;5059410;28;20214;-72
2023/12/07 03:31:10;;;;;;;15.77;11.25;;;;;;;;;;5055359;28;20297;-72
2023/12/07 03:33:38;;;;;;;17.52;9.70;;;;;;;;;;5053364;28;20306;-72
2023/12/07 03:36:06;;;;;;;16.65;10.52;;;;;;;;;;5054055;28;20216;-72
2023/12/07 03:38:32;;;;;;;15.68;10.43;;;;;;;-142.91;0.00;100169.13;5058115;28;20289;-72
2023/12/07 03:40:59;;;;;;;14.48;10.45;;;;;;;-142.91;0.00;100169.13;5050551;28;20754;-72
2023/12/07 03:43:25;;;;;;;16.65;9.80;;;;;;;;;;5053578;28;20234;-72
2023/12/07 03:45:52;;;;;;;13.55;10.63;;;;;;;;;;5049498;28;20281;-72
2023/12/07 03:48:18;;;;;;;11.45;9.65;;;;;;;;;;5026450;28;20207;-72
2023/12/07 03:50:45;;;;;;;13.30;9.52;;;;;;;;;;5053471;28;20746;-70
2023/12/07 03:53:13;;;;;;;14.70;10.82;;;;;;;-142.91;0.00;100169.13;5056978;28;20305;-72
2023/12/07 03:55:39;;;;;;;14.65;10.98;;;;;;;;;;5057860;28;20234;-72
2023/12/07 03:58:06;;;;;;;15.95;11.48;;;;;;;;;;5060700;28;20647;-70
2023/12/07 04:00:32;;;;;;;17.30;11.50;;;;;;;;;;5051307;28;20284;-71
2023/12/07 04:02:59;;;;;;;15.73;11.50;;;;;;;;;;5056730;28;20686;-71
2023/12/07 04:05:25;;;;;;;17.15;11.10;;;;;;;;;;5054536;28;20294;-71
2023/12/07 04:07:53;;;;;;;15.95;11.30;;;;;;;;;;5049320;28;20281;-71
2023/12/07 04:10:20;;;;;;;17.45;11.75;;;;;;;;;;5049117;28;20425;-71
2023/12/07 04:12:47;;;;;;;17.92;11.63;;;;;;;;;;5055018;28;20207;-71
2023/12/07 04:15:13;;;;;;;17.17;10.82;;;;;;;;;;5055669;28;20286;-71
2023/12/07 04:17:39;;;;;;;17.98;11.57;;;;;;;;;;5064236;28;20203;-70
2023/12/07 04:20:07;;;;;;;17.77;12.30;;;;;;;;;;5055785;28;20222;-71
2023/12/07 04:22:33;;;;;;;20.80;12.05;;;;;;;;;;5050385;28;20203;-71
2023/12/07 04:25:00;;;;;;;18.02;12.75;;;;;;;;;;5051241;28;20687;-71
2023/12/07 04:27:28;;;;;;;20.67;13.18;;;;;;;;;;5054787;28;20294;-72
2023/12/07 04:29:54;;;;;;;18.85;12.20;;;;;;;;;;5056609;28;20202;-70
2023/12/07 04:32:21;;;;;;;16.13;12.07;;;;;;;;;;5047918;28;20230;-71
2023/12/07 04:34:47;;;;;;;20.27;12.20;;;;;;;-142.91;0.00;100169.13;5050705;28;20292;-71
2023/12/07 04:37:14;;;;;;;20.75;13.88;;;;;;;;;;5055512;28;20651;-71
2023/12/07 04:39:40;;;;;;;25.63;16.55;;;;;;;-142.91;0.00;100169.13;5055494;28;20293;-71
2023/12/07 04:42:07;;;;;;;27.33;14.90;;;;;;;;;;5053373;28;20293;-70
2023/12/07 04:44:35;;;;;;;19.90;13.10;;;;;;;;;;5057383;28;20731;-71
2023/12/07 04:47:01;;;;;;;21.45;14.10;;;;;;;;;;5063169;28;20664;-72
2023/12/07 04:49:28;;;;;;;22.33;13.35;;;;;;;;;;5058308;28;20222;-71
2023/12/07 04:51:54;;;;;;;21.52;13.50;;;;;;;;;;5056245;28;21370;-72
2023/12/07 04:54:21;;;;;;;20.20;13.52;;;;;;;;;;5055715;28;20325;-72
2023/12/07 04:56:47;;;;;;;21.08;13.52;;;;;;;;;;5061717;28;20248;-72
2023/12/07 04:59:14;;;;;;;46.83;27.80;;;;;;;;;;5046483;28;20665;-72
2023/12/07 05:01:41;;;;;;;45.03;27.67;;;;;;;;;;5062682;28;20229;-72
2023/12/07 05:04:08;;;;;;;33.97;20.25;;;;;;;-142.91;0.00;100169.13;5061987;28;20660;-72
2023/12/07 05:06:35;;;;;;;24.90;15.82;;;;;;;-142.91;0.00;100169.13;5048499;28;20337;-72
2023/12/07 05:09:02;;;;;;;25.33;15.30;;;;;;;;;;5035257;28;20226;-71
2023/12/07 05:11:28;;;;;;;19.55;14.20;;;;;;;;;;5060896;28;20214;-72
2023/12/07 05:13:55;;;;;;;19.70;13.38;;;;;;;;;;5050622;28;20322;-71
2023/12/07 05:16:21;;;;;;;19.23;12.75;;;;;;;;;;5048341;28;20629;-73
2023/12/07 05:18:49;;;;;;;19.42;13.00;;;;;;;;;;5050379;28;20647;-73
2023/12/07 05:21:15;;;;;;;37.78;21.08;;;;;;;;;;5054369;28;20281;-73
2023/12/07 05:23:42;;;;;;;39.45;21.80;;;;;;;;;;5057905;28;21217;-71
2023/12/07 05:26:08;;;;;;;46.10;25.52;;;;;;;;;;5052159;28;20695;-71
2023/12/07 05:28:36;;;;;;;116.32;51.70;;;;;;;;;;5056043;28;20202;-71
2023/12/07 05:31:03;;;;;;;61.00;31.77;;;;;;;;;;5050726;28;20290;-71
2023/12/07 05:33:29;;;;;;;38.50;20.45;;;;;;;;;;5062142;28;20313;-71
2023/12/07 05:35:58;;;;;;;33.33;19.67;;;;;;;-142.91;0.00;100169.13;5063041;28;20646;-72
2023/12/07 05:38:24;;;;;;;53.55;29.63;;;;;;;;;;5054361;28;20199;-71
2023/12/07 05:40:51;;;;;;;44.40;23.60;;;;;;;;;;5050679;28;20328;-71
2023/12/07 05:43:17;;;;;;;42.58;21.77;;;;;;;;;;5061397;28;20289;-72
2023/12/07 05:45:44;;;;;;;28.30;17.48;;;;;;;;;;5060324;28;20297;-72
2023/12/07 05:48:11;;;;;;;25.55;15.60;;;;;;;-142.91;0.00;100169.13;5055917;28;20286;-72
2023/12/07 05:50:39;;;;;;;29.63;15.43;;;;;;;-142.91;0.00;100169.13;5052350;28;20230;-72
2023/12/07 05:53:07;;;;;;;23.02;14.75;;;;;;;-142.91;0.00;100169.13;5049194;28;20577;-71
2023/12/07 05:55:33;;;;;;;22.48;14.20;;;;;;;;;;5054836;28;20206;-72
2023/12/07 05:58:00;;;;;;;25.02;14.63;;;;;;;;;;5049241;28;20203;-74
2023/12/07 06:00:27;;;;;;;23.88;14.35;;;;;;;;;;5057043;28;20219;-72
2023/12/07 06:02:53;;;;;;;19.55;13.45;;;;;;;;;;5054348;28;20202;-72
2023/12/07 06:05:20;;;;;;;20.67;13.02;;;;;;;;;;5059569;28;20294;-74
2023/12/07 06:07:47;;;;;;;20.73;13.80;;;;;;;;;;5047280;28;20203;-71
2023/12/07 06:10:15;;;;;;;19.13;12.98;;;;;;;;;;5060005;28;20229;-72
2023/12/07 06:12:42;;;;;;;20.90;13.60;;;;;;;;;;5062712;28;20229;-72
2023/12/07 06:15:09;;;;;;;21.38;13.73;;;;;;;;;;5055879;28;20759;-73
2023/12/07 06:17:36;;;;;;;19.20;13.20;;;;;;;;;;5054341;28;20199;-72
2023/12/07 06:20:03;;;;;;;22.88;12.48;;;;;;;-142.91;0.00;100169.13;5057099;28;20249;-72
2023/12/07 06:22:30;;;;;;;21.13;12.38;;;;;;;;;;5053316;28;20211;-71
2023/12/07 06:24:56;;;;;;;18.58;12.07;;;;;;;;;;5058649;28;20229;-72
2023/12/07 06:27:24;;;;;;;16.70;10.95;;;;;;;;;;5053592;28;20301;-71
2023/12/07 06:29:51;;;;;;;17.38;11.25;;;;;;;;;;5057963;28;20298;-71
2023/12/07 06:32:17;;;;;;;17.05;11.52;;;;;;;;;;5063311;28;20229;-71
2023/12/07 06:34:44;;;;;;;16.25;10.65;;;;;;;;;;5051823;28;20218;-73
2023/12/07 06:37:11;;;;;;;17.08;11.77;;;;;;;;;;5051897;28;20683;-73
2023/12/07 06:39:38;;;;;;;17.73;10.80;;;;;;;;;;5054392;28;21566;-72
2023/12/07 06:42:05;;;;;;;15.70;10.32;;;;;;;-142.91;0.00;100169.13;5056097;28;20198;-72
2023/12/07 06:44:32;;;;;;;15.30;11.38;;;;;;;;;;5054273;28;20294;-71
2023/12/07 06:47:02;;;;;;;16.83;11.75;;;;;;;;;;5052986;28;20282;-73
2023/12/07 06:49:29;;;;;;;17.10;11.13;;;;;;;;;;5046627;28;20203;-73
2023/12/07 06:51:56;;;;;;;16.38;12.15;;;;;;;;;;5045359;28;20285;-72
2023/12/07 06:54:22;;;;;;;15.90;11.57;;;;;;;;;;5045399;28;20223;-73
2023/12/07 06:56:49;;;;;;;18.50;13.18;;;;;;;25.85;0.00;100169.13;5057639;28;20293;-72
2023/12/07 06:59:15;;;;;;;20.70;13.35;;;;;;;;;;5058568;28;20636;-72
2023/12/07 07:01:43;;;;;;;26.25;13.80;;;;;;;;;;5050548;28;21129;-72
2023/12/07 07:04:09;;;;;;;22.45;13.60;;;;;;;;;;5058883;28;20285;-72
2023/12/07 07:06:36;;;;;;;19.27;13.45;;;;;;;;;;5054669;28;20194;-73
2023/12/07 07:09:04;;;;;;;19.33;13.80;;;;;;;;;;5058388;28;20198;-73
2023/12/07 07:11:31;;;;;;;18.95;13.75;;;;;;;23.57;0.00;168303.34;5050184;28;21096;-73
2023/12/07 07:13:57;;;;;;;20.17;12.40;;;;;;;;;;5054712;28;20321;-72
2023/12/07 07:16:24;;;;;;;19.20;12.52;;;;;;;;;;5056333;28;20236;-73
2023/12/07 07:18:52;;;;;;;17.85;11.90;;;;;;;;;;5056147;28;20285;-72
2023/12/07 07:21:19;;;;;;;17.88;11.18;;;;;;;;;;5059255;28;20730;-72
2023/12/07 07:23:49;;;;;;;18.52;11.60;;;;;;;;;;5058564;28;20578;-75
2023/12/07 07:26:22;;;;;;;15.55;10.77;;;;;;;-142.91;0.00;100169.13;5062548;28;20205;-75
2023/12/07 07:28:51;;;;;;;16.35;9.77;;;;;;;;;;5052500;28;20198;-74
2023/12/07 07:31:18;;;;;;;13.85;9.82;;;;;;;;;;5051765;28;20317;-73
2023/12/07 07:33:46;;;;;;;10.95;8.55;;;;;;;;;;5050531;28;20276;-73
2023/12/07 07:36:15;;;;;;;9.02;7.75;;;;;;;;;;5063541;28;20202;-73
2023/12/07 07:38:41;;;;;;;9.32;7.68;;;;;;;;;;5055891;28;20219;-73
2023/12/07 07:41:07;;;;;;;8.75;7.50;;;;;;;;;;5057563;28;20298;-73
2023/12/07 07:43:34;;;;;;;7.30;6.35;;;;;;;;;;5056741;28;20281;-72
2023/12/07 07:46:00;;;;;;;6.47;5.95;;;;;;;;;;5060438;28;20220;-72
2023/12/07 07:48:27;;;;;;;5.40;4.63;;;;;;;;;;5057415;28;20662;-72
2023/12/07 07:50:53;;;;;;;5.20;4.70;;;;;;;;;;5051264;28;20292;-72
2023/12/07 07:53:21;;;;;;;4.90;4.50;;;;;;;;;;5059805;28;20225;-72
2023/12/07 07:55:47;;;;;;;5.00;4.60;;;;;;;;;;5063264;28;20284;-73
2023/12/07 07:58:14;;;;;;;4.70;4.30;;;;;;;;;;5062040;28;20314;-73
2023/12/07 08:00:40;;;;;;;4.90;4.38;;;;;;;;;;5064488;28;20222;-71
2023/12/07 08:03:07;;;;;;;4.78;3.22;;;;;;;;;;5057852;28;20230;-73
2023/12/07 08:05:33;;;;;;;5.10;4.03;;;;;;;;;;5052203;28;20285;-74
2023/12/07 08:07:59;;;;;;;3.90;3.60;;;;;;;;;;5057815;28;20298;-72
2023/12/07 08:10:27;;;;;;;4.35;3.95;;;;;;;;;;5051373;28;20765;-72
2023/12/07 08:12:54;;;;;;;5.68;4.93;;;;;;;;;;5051311;28;20287;-72
2023/12/07 08:15:21;;;;;;;5.32;4.47;;;;;;;-142.91;0.00;100169.13;5061713;28;20306;-72
2023/12/07 08:17:48;;;;;;;4.20;3.80;;;;;;;;;;5054814;28;20202;-72
2023/12/07 08:20:15;;;;;;;3.17;2.88;;;;;;;;;;5054020;28;20299;-72
2023/12/07 08:22:41;;;;;;;7.63;3.45;;;;;;;;;;5057467;28;20199;-72
2023/12/07 08:25:09;;;;;;;5.20;3.08;;;;;;;-142.91;0.00;100169.13;5060083;28;20379;-72
2023/12/07 08:27:37;;;;;;;3.58;3.28;;;;;;;;;;5061375;28;20205;-73
2023/12/07 08:30:05;;;;;;;4.90;4.18;;;;;;;;;;5058026;28;20237;-72
2023/12/07 08:32:31;;;;;;;3.63;3.33;;;;;;;;;;5056478;28;20325;-73
2023/12/07 08:34:58;;;;;;;3.72;3.30;;;;;;;;;;5055881;28;20222;-72
2023/12/07 08:37:24;;;;;;;3.10;2.33;;;;;;;;;;5056635;28;20734;-73
2023/12/07 08:39:50;;;;;;;2.85;2.65;;;;;;;-142.91;0.00;100169.13;5053903;28;20289;-72
2023/12/07 08:42:17;;;;;;;2.75;2.45;;;;;;;;;;5050736;28;20314;-71
2023/12/07 08:44:45;;;;;;;3.33;2.70;;;;;;;;;;5053587;28;20976;-73
2023/12/07 08:47:11;;;;;;;2.65;2.28;;;;;;;-142.91;0.00;100169.13;5054401;28;20290;-73
2023/12/07 08:49:38;;;;;;;2.10;1.90;;;;;;;;;;5047630;28;20286;-73
2023/12/07 08:52:04;;;;;;;2.00;1.90;;;;;;;;;;5050741;28;20775;-73
2023/12/07 08:54:31;;;;;;;2.15;2.00;;;;;;;;;;5061522;28;20587;-74
2023/12/07 08:56:57;;;;;;;2.63;2.42;;;;;;;;;;5057343;28;20588;-71
2023/12/07 08:59:24;;;;;;;2.00;1.90;;;;;;;;;;5057880;28;20298;-71
2023/12/07 09:01:52;;;;;;;2.65;2.40;;;;;;;;;;5062036;28;20289;-72
2023/12/07 09:04:18;;;;;;;2.08;1.88;;;;;;;;;;5054475;28;20761;-74
2023/12/07 09:06:45;;;;;;;2.42;2.22;;;;;;;-142.91;0.00;100169.13;5063077;28;20301;-73
2023/12/07 09:09:12;;;;;;;2.00;1.90;;;;;;;-142.91;0.00;100169.13;5043987;28;20290;-71
2023/12/07 09:11:39;;;;;;;2.33;2.13;;;;;;;-142.91;0.00;100169.13;5049696;28;20205;-71
2023/12/07 09:14:05;;;;;;;2.20;2.08;;;;;;;;;;5062290;28;20790;-73
2023/12/07 09:16:31;;;;;;;1.50;1.50;;;;;;;;;;5050711;28;20322;-73
2023/12/07 09:18:59;;;;;;;1.95;1.85;;;;;;;;;;5063745;28;20289;-73
2023/12/07 09:21:26;;;;;;;1.83;1.73;;;;;;;;;;5050315;28;20338;-73
2023/12/07 09:23:52;;;;;;;2.17;1.88;;;;;;;-142.91;0.00;100169.13;5045569;28;20905;-72
2023/12/07 09:26:19;;;;;;;1.60;1.50;;;;;;;;;;5055951;28;20585;-72
2023/12/07 09:28:45;;;;;;;2.10;2.00;;;;;;;;;;5055291;28;20293;-72
2023/12/07 09:31:11;;;;;;;2.35;2.15;;;;;;;;;;5056009;28;20294;-72
2023/12/07 09:33:38;;;;;;;2.00;1.90;;;;;;;;;;5056563;28;20230;-73
2023/12/07 09:36:08;;;;;;;2.63;2.00;;;;;;;;;;5056238;28;20218;-73
2023/12/07 09:38:36;;;;;;;1.95;1.85;;;;;;;-142.91;0.00;100169.13;5060230;28;20208;-71
2023/12/07 09:41:03;;;;;;;2.10;1.90;;;;;;;-142.91;0.00;100169.13;5047892;28;20325;-72
2023/12/07 09:43:30;;;;;;;2.20;2.10;;;;;;;-142.91;0.00;100169.13;5054941;28;20297;-72
2023/12/07 09:45:58;;;;;;;2.13;1.92;;;;;;;;;;5054870;28;20646;-72
2023/12/07 09:48:24;;;;;;;1.52;1.42;;;;;;;;;;5057189;28;20284;-73
2023/12/07 09:50:51;;;;;;;1.40;1.40;;;;;;;;;;5049790;28;20307;-73
2023/12/07 09:53:21;;;;;;;1.65;1.45;;;;;;;;;;5055380;28;20683;-72
2023/12/07 09:55:48;;;;;;;1.92;1.83;;;;;;;;;;5058772;28;20231;-73
2023/12/07 09:58:14;;;;;;;4.45;1.90;;;;;;;;;;5063357;28;20305;-73
2023/12/07 10:00:41;;;;;;;1.80;1.70;;;;;;;;;;5061279;28;20739;-73
2023/12/07 10:03:09;;;;;;;1.40;1.30;;;;;;;;;;5050809;28;20238;-73
2023/12/07 10:05:35;;;;;;;1.90;1.80;;;;;;;;;;5055955;28;20198;-73
2023/12/07 10:08:02;;;;;;;2.00;1.50;;;;;;;;;;5046751;28;20311;-73
2023/12/07 10:10:29;;;;;;;1.35;1.25;;;;;;;;;;5047465;28;20309;-73
2023/12/07 10:12:57;;;;;;;1.30;1.20;;;;;;;;;;5059103;28;20251;-73
2023/12/07 10:15:25;;;;;;;1.60;1.50;;;;;;;;;;5050876;28;20733;-72
2023/12/07 10:17:52;;;;;;;1.17;1.17;;;;;;;;;;5059346;28;20694;-72
2023/12/07 10:20:19;;;;;;;1.25;1.25;;;;;;;;;;5050605;28;20309;-72
2023/12/07 10:22:46;;;;;;;1.40;1.30;;;;;;;;;;5050119;28;20252;-72
2023/12/07 10:25:13;;;;;;;2.53;1.17;;;;;;;-142.91;0.00;100169.13;5049438;28;20313;-72
2023/12/07 10:27:41;;;;;;;1.00;1.00;;;;;;;;;;5052364;28;20290;-72
2023/12/07 10:30:11;;;;;;;1.17;1.17;;;;;;;-142.91;0.00;100169.13;5053064;28;20217;-72
2023/12/07 10:32:38;;;;;;;2.67;1.40;;;;;;;;;;5049652;28;20302;-72
2023/12/07 10:35:07;;;;;;;2.33;1.40;;;;;;;-142.91;0.00;100169.13;5056965;28;20317;-74
2023/12/07 10:37:34;;;;;;;1.38;1.38;;;;;;;;;;5051547;28;20218;-72
2023/12/07 10:40:00;;;;;;;1.98;1.10;;;;;;;-142.91;0.00;100169.13;5049928;28;20746;-73
2023/12/07 10:42:30;;;;;;;1.20;1.20;;;;;;;;;;5045775;28;20282;-75
2023/12/07 10:44:58;;;;;;;1.10;1.10;;;;;;;;;;5049483;28;20681;-74
2023/12/07 10:47:27;;;;;;;2.45;1.20;;;;;;;-142.91;0.00;100169.13;5047438;28;20207;-76
2023/12/07 10:49:55;;;;;;;3.08;1.33;;;;;;;;;;5042740;28;20294;-73
2023/12/07 10:52:25;;;;;;;1.10;1.10;;;;;;;-142.91;0.00;100169.13;5054800;28;20634;-73
2023/12/07 10:55:03;;;;;;;1.20;1.20;;;;;;;-142.91;0.00;100169.13;5061165;28;20222;-72
2023/12/07 10:57:31;;;;;;;1.15;1.15;;;;;;;-142.91;0.00;100169.13;5057164;28;20238;-73
2023/12/07 11:00:01;;;;;;;2.35;1.20;;;;;;;-142.91;0.00;100169.13;5052104;28;20349;-73
2023/12/07 11:02:28;;;;;;;1.05;1.05;;;;;;;-142.91;0.00;100169.13;5058730;28;20290;-73
2023/12/07 11:04:56;;;;;;;1.33;1.23;;;;;;;;;;5050671;28;20199;-74
2023/12/07 11:07:25;;;;;;;0.93;0.93;;;;;;;;;;5052992;28;20291;-74
2023/12/07 11:09:54;;;;;;;1.30;1.30;;;;;;;;;;5059363;28;20289;-73
2023/12/07 11:12:32;;;;;;;1.20;1.10;;;;;;;-142.91;0.00;100169.13;5056850;28;20293;-72
2023/12/07 11:15:00;;;;;;;1.38;1.27;;;;;;;-142.91;0.00;100169.13;5055686;28;20221;-73
2023/12/07 11:17:27;;;;;;;1.42;1.42;;;;;;;;;;5052667;28;20298;-72
2023/12/07 11:19:55;;;;;;;3.17;1.00;;;;;;;;;;5055278;28;20730;-74
2023/12/07 11:22:24;;;;;;;1.02;1.02;;;;;;;-142.91;0.00;100169.13;5058466;28;20314;-73
2023/12/07 11:24:57;;;;;;;1.65;1.55;;;;;;;-142.91;0.00;100169.13;5059161;28;20309;-72
2023/12/07 11:27:25;;;;;;;1.92;1.73;;;;;;;-142.91;0.00;100169.13;5059362;28;20656;-74
2023/12/07 11:29:52;;;;;;;1.50;1.40;;;;;;;-142.91;0.00;100169.13;5051737;28;20206;-72
2023/12/07 11:32:20;;;;;;;1.88;1.77;;;;;;;;;;5053272;28;20352;-72
2023/12/07 11:34:47;;;;;;;2.75;1.63;;;;;;;;;;5051722;28;20313;-74
2023/12/07 11:37:16;;;;;;;4.00;1.90;;;;;;;;;;5057227;28;20694;-73
2023/12/07 11:39:42;;;;;;;2.00;1.90;;;;;;;;;;5059821;28;20202;-73
2023/12/07 11:42:11;;;;;;;2.15;2.05;;;;;;;;;;5059884;28;20747;-73
2023/12/07 11:44:38;;;;;;;2.22;2.00;;;;;;;;;;5053415;28;20309;-75
2023/12/07 11:47:05;;;;;;;2.13;1.92;;;;;;;;;;5054920;28;20290;-72
2023/12/07 11:49:33;;;;;;;1.67;1.58;;;;;;;-142.91;0.00;100169.13;5055093;28;20234;-72
2023/12/07 11:52:00;;;;;;;1.23;1.23;;;;;;;-142.91;0.00;100169.13;5057820;28;20198;-73
2023/12/07 11:54:27;;;;;;;1.67;1.60;;;;;;;;;;5057424;28;21232;-74
2023/12/07 11:56:54;;;;;;;1.67;1.58;;;;;;;-142.91;0.00;100169.13;5060000;28;20305;-73
2023/12/07 11:59:20;;;;;;;2.30;1.88;;;;;;;;;;5060587;28;20304;-71
2023/12/07 12:01:47;;;;;;;2.08;1.98;;;;;;;;;;5053803;28;20314;-71
2023/12/07 12:04:14;;;;;;;2.50;2.35;;;;;;;;;;5062789;28;20289;-73
2023/12/07 12:06:43;;;;;;;2.05;1.95;;;;;;;;;;5054502;28;20763;-73
2023/12/07 12:09:11;;;;;;;1.85;1.75;;;;;;;-142.91;0.00;100169.13;5055146;28;20295;-72
2023/12/07 12:11:37;;;;;;;1.90;1.80;;;;;;;-142.91;0.00;100169.13;5057649;28;20229;-72
2023/12/07 12:14:04;;;;;;;2.00;1.90;;;;;;;-142.91;0.00;100169.13;5060658;28;20274;-71
2023/12/07 12:16:31;;;;;;;3.13;2.05;;;;;;;-142.91;0.00;100169.13;5060351;28;20305;-71
2023/12/07 12:18:57;;;;;;;2.05;1.85;;;;;;;;;;5063681;28;20293;-72
2023/12/07 12:21:25;;;;;;;1.80;1.70;;;;;;;-142.91;0.00;100169.13;5062946;28;20322;-72
2023/12/07 12:23:53;;;;;;;4.13;2.00;;;;;;;-142.91;0.00;100169.13;5063549;28;20293;-72
2023/12/07 12:26:19;;;;;;;2.03;1.92;;;;;;;;;;5055833;28;20325;-71
2023/12/07 12:28:46;;;;;;;2.55;1.40;;;;;;;-142.91;0.00;100169.13;5053224;28;20203;-72
2023/12/07 12:31:13;;;;;;;1.65;1.58;;;;;;;;;;5046895;28;20775;-72
2023/12/07 12:33:39;;;;;;;1.83;1.73;;;;;;;;;;5047480;28;20203;-72
2023/12/07 12:36:10;;;;;;;2.00;1.50;;;;;;;;;;5044656;28;20889;-72
2023/12/07 12:38:37;;;;;;;1.92;1.65;;;;;;;;;;5049198;28;20214;-72
2023/12/07 12:41:05;;;;;;;1.60;1.58;;;;;;;-142.91;0.00;100169.13;5049540;28;20226;-72
2023/12/07 12:43:32;;;;;;;2.60;1.55;;;;;;;;;;5053404;28;20681;-72
2023/12/07 12:45:59;;;;;;;2.40;1.45;;;;;;;;;;5052399;28;20209;-72
2023/12/07 12:48:25;;;;;;;1.83;1.73;;;;;;;;;;5053538;28;20381;-72
2023/12/07 12:50:51;;;;;;;1.30;1.30;;;;;;;;;;5058559;28;20293;-72
2023/12/07 12:53:18;;;;;;;1.90;1.80;;;;;;;-142.91;0.00;100169.13;5052703;28;20285;-70
2023/12/07 12:55:46;;;;;;;2.28;2.08;;;;;;;;;;5053106;28;20311;-72
2023/12/07 12:58:16;;;;;;;1.77;1.67;;;;;;;;;;5052448;28;20719;-72
2023/12/07 13:00:44;;;;;;;1.63;1.52;;;;;;;;;;5051076;28;20202;-72
2023/12/07 13:03:13;;;;;;;4.55;1.48;;;;;;;;;;5059889;28;20751;-72
2023/12/07 13:05:39;;;;;;;1.83;1.55;;;;;;;;;;5052353;28;20203;-72
2023/12/07 13:08:06;;;;;;;2.17;1.88;;;;;;;-142.91;0.00;100169.13;5053792;28;20281;-71
2023/12/07 13:10:32;;;;;;;1.42;1.40;;;;;;;;;;5052509;28;20313;-69
2023/12/07 13:12:59;;;;;;;2.08;1.98;;;;;;;-142.91;0.00;100169.13;5053173;28;20286;-69
2023/12/07 13:15:27;;;;;;;2.25;2.05;;;;;;;;;;5059715;28;20320;-73
2023/12/07 13:17:53;;;;;;;2.15;2.05;;;;;;;-142.91;0.00;100169.13;5060926;28;20297;-73
2023/12/07 13:20:20;;;;;;;2.10;2.00;;;;;;;;;;5064545;28;20281;-71
2023/12/07 13:22:46;;;;;;;2.10;2.00;;;;;;;;;;5062806;28;20234;-71
2023/12/07 13:25:14;;;;;;;1.90;1.80;;;;;;;-142.91;0.00;100169.13;5054097;28;20774;-72
2023/12/07 13:27:41;;;;;;;1.90;1.80;;;;;;;;;;5054633;28;20303;-71